createdAt,value
2018-04-14T00:00:59.606Z,95335.24
2018-04-14T00:03:32.856Z,95340.27
2018-04-14T00:06:06.136Z,95341.34
2018-04-14T00:08:39.379Z,95335.64
2018-04-14T00:11:12.646Z,95332.20
2018-04-14T00:13:45.900Z,95333.95
2018-04-14T00:16:19.941Z,95334.14
2018-04-14T00:18:53.187Z,95338.66
2018-04-14T00:21:26.451Z,95338.12
2018-04-14T00:23:59.715Z,95342.30
2018-04-14T00:26:32.984Z,95351.31
2018-04-14T00:29:07.002Z,95352.59
2018-04-14T00:31:41.030Z,95354.94
2018-04-14T00:34:14.283Z,95362.08
2018-04-14T00:36:47.552Z,95359.92
2018-04-14T00:39:20.800Z,95354.08
2018-04-14T00:41:54.083Z,95356.17
2018-04-14T00:44:27.343Z,95356.53
2018-04-14T00:47:00.787Z,95350.41
2018-04-14T00:49:34.044Z,95355.11
2018-04-14T00:52:07.316Z,95349.42
2018-04-14T00:54:40.591Z,95353.25
2018-04-14T00:57:18.588Z,95352.80
2018-04-14T00:59:51.848Z,95347.95
2018-04-14T01:02:25.126Z,95346.84
2018-04-14T01:04:58.384Z,95349.39
2018-04-14T01:07:31.657Z,95351.33
2018-04-14T01:10:04.915Z,95346.73
2018-04-14T01:12:38.955Z,95346.10
2018-04-14T01:15:12.970Z,95342.41
2018-04-14T01:17:46.251Z,95349.57
2018-04-14T01:20:20.272Z,95343.31
2018-04-14T01:22:53.546Z,95349.30
2018-04-14T01:25:26.806Z,95344.64
2018-04-14T01:28:00.075Z,95346.00
2018-04-14T01:30:33.323Z,95345.80
2018-04-14T01:33:06.591Z,95345.16
2018-04-14T01:35:39.856Z,95342.91
2018-04-14T01:38:13.128Z,95343.17
2018-04-14T01:40:47.149Z,95346.88
2018-04-14T01:43:20.427Z,95338.05
2018-04-14T01:45:54.451Z,95344.92
2018-04-14T01:48:27.728Z,95344.28
2018-04-14T01:51:01.756Z,95349.50
2018-04-14T01:53:35.787Z,95346.28
2018-04-14T01:56:09.049Z,95356.20
2018-04-14T01:58:43.093Z,95356.80
2018-04-14T02:01:16.352Z,95356.27
2018-04-14T02:03:49.620Z,95366.56
2018-04-14T02:06:22.867Z,95359.52
2018-04-14T02:08:56.161Z,95362.58
2018-04-14T02:11:29.408Z,95362.77
2018-04-14T02:14:02.679Z,95369.41
2018-04-14T02:16:35.931Z,95372.98
2018-04-14T02:19:09.200Z,95364.77
2018-04-14T02:21:43.220Z,95373.71
2018-04-14T02:24:17.254Z,95378.70
2018-04-14T02:26:50.507Z,95373.32
2018-04-14T02:29:23.780Z,95369.62
2018-04-14T02:31:57.032Z,95369.34
2018-04-14T02:34:30.304Z,95368.76
2018-04-14T02:37:04.327Z,95370.31
2018-04-14T02:39:37.596Z,95369.47
2018-04-14T02:42:10.836Z,95372.03
2018-04-14T02:44:44.102Z,95368.53
2018-04-14T02:47:18.107Z,95376.23
2018-04-14T02:49:52.148Z,95374.66
2018-04-14T02:52:25.395Z,95374.05
2018-04-14T02:54:58.659Z,95378.53
2018-04-14T02:57:31.911Z,95379.75
2018-04-14T03:00:05.945Z,95373.73
2018-04-14T03:02:39.187Z,95374.14
2018-04-14T03:05:12.455Z,95371.38
2018-04-14T03:07:45.714Z,95369.45
2018-04-14T03:10:19.796Z,95368.56
2018-04-14T03:12:52.985Z,95378.59
2018-04-14T03:15:26.243Z,95373.75
2018-04-14T03:17:59.508Z,95369.73
2018-04-14T03:20:32.756Z,95369.33
2018-04-14T03:23:06.041Z,95372.99
2018-04-14T03:25:39.289Z,95367.41
2018-04-14T03:28:12.556Z,95369.16
2018-04-14T03:30:45.795Z,95376.84
2018-04-14T03:33:19.095Z,95374.97
2018-04-14T03:35:53.301Z,95379.22
2018-04-14T03:38:26.567Z,95379.05
2018-04-14T03:41:00.579Z,95380.52
2018-04-14T03:43:34.613Z,95387.83
2018-04-14T03:46:07.858Z,95389.28
2018-04-14T03:48:41.120Z,95389.11
2018-04-14T03:51:14.367Z,95393.40
2018-04-14T03:53:48.394Z,95401.49
2018-04-14T03:56:21.637Z,95397.25
2018-04-14T03:58:54.908Z,95394.54
2018-04-14T04:01:28.152Z,95402.48
2018-04-14T04:04:02.178Z,95406.56
2018-04-14T04:06:35.429Z,95408.30
2018-04-14T04:09:08.703Z,95406.94
2018-04-14T04:11:41.952Z,95408.08
2018-04-14T04:14:15.214Z,95411.45
2018-04-14T04:16:48.462Z,95413.80
2018-04-14T04:19:39.620Z,95412.52
2018-04-14T04:22:30.831Z,95420.23
2018-04-14T04:25:22.058Z,95418.59
2018-04-14T04:27:55.311Z,95417.03
2018-04-14T04:30:28.571Z,95419.18
2018-04-14T04:33:02.584Z,95425.22
2018-04-14T04:35:36.607Z,95426.00
2018-04-14T04:38:14.734Z,95419.64
2018-04-14T04:40:47.976Z,95428.09
2018-04-14T04:43:21.239Z,95425.95
2018-04-14T04:45:54.488Z,95429.78
2018-04-14T04:48:28.533Z,95427.36
2018-04-14T04:51:01.785Z,95430.97
2018-04-14T04:53:35.814Z,95428.20
2018-04-14T04:56:09.072Z,95435.09
2018-04-14T04:58:42.344Z,95440.84
2018-04-14T05:01:15.593Z,95442.26
2018-04-14T05:03:48.873Z,95444.78
2018-04-14T05:06:22.872Z,95444.59
2018-04-14T05:08:56.913Z,95450.27
2018-04-14T05:11:30.155Z,95451.88
2018-04-14T05:14:03.425Z,95464.31
2018-04-14T05:16:36.671Z,95463.63
2018-04-14T05:19:10.718Z,95471.86
2018-04-14T05:21:43.955Z,95466.83
2018-04-14T05:24:17.224Z,95468.97
2018-04-14T05:26:50.472Z,95480.45
2018-04-14T05:29:24.507Z,95481.23
2018-04-14T05:31:57.755Z,95476.52
2018-04-14T05:34:31.007Z,95482.46
2018-04-14T05:37:04.269Z,95485.21
2018-04-14T05:39:38.292Z,95484.23
2018-04-14T05:42:11.547Z,95496.08
2018-04-14T05:44:44.812Z,95495.89
2018-04-14T05:47:18.063Z,95492.78
2018-04-14T05:49:52.097Z,95493.50
2018-04-14T05:52:25.355Z,95497.80
2018-04-14T05:54:59.392Z,95498.42
2018-04-14T05:57:32.646Z,95497.00
2018-04-14T06:00:05.949Z,95501.63
2018-04-14T06:02:39.151Z,95505.29
2018-04-14T06:05:12.428Z,95503.47
2018-04-14T06:07:59.912Z,95503.42
2018-04-14T06:10:33.196Z,95509.10
2018-04-14T06:13:06.444Z,95511.12
2018-04-14T06:15:39.736Z,95517.94
2018-04-14T06:18:12.982Z,95521.51
2018-04-14T06:20:46.251Z,95515.86
2018-04-14T06:23:19.515Z,95523.92
2018-04-14T06:25:52.784Z,95529.37
2018-04-14T06:28:26.032Z,95533.60
2018-04-14T06:30:59.405Z,95526.97
2018-04-14T06:33:33.489Z,95533.41
2018-04-14T06:36:06.775Z,95537.41
2018-04-14T06:38:40.032Z,95538.09
2018-04-14T06:41:13.511Z,95536.64
2018-04-14T06:43:46.790Z,95544.94
2018-04-14T06:46:20.899Z,95544.43
2018-04-14T06:48:54.250Z,95543.54
2018-04-14T06:51:27.520Z,95545.69
2018-04-14T06:54:01.561Z,95542.61
2018-04-14T06:56:34.819Z,95545.39
2018-04-14T06:59:08.070Z,95543.27
2018-04-14T07:01:41.495Z,95543.35
2018-04-14T07:04:15.512Z,95540.39
2018-04-14T07:06:49.560Z,95544.64
2018-04-14T07:09:40.152Z,95549.66
2018-04-14T07:12:13.439Z,95552.32
2018-04-14T07:14:46.692Z,95556.00
2018-04-14T07:17:20.732Z,95559.83
2018-04-14T07:19:53.987Z,95559.47
2018-04-14T07:22:28.041Z,95562.36
2018-04-14T07:25:01.305Z,95567.03
2018-04-14T07:27:34.565Z,95564.82
2018-04-14T07:30:07.829Z,95573.72
2018-04-14T07:32:41.106Z,95573.58
2018-04-14T07:35:15.138Z,95574.48
2018-04-14T07:37:48.404Z,95573.88
2018-04-14T07:40:25.603Z,95565.64
2018-04-14T07:42:58.892Z,95568.59
2018-04-14T07:45:32.142Z,95568.44
2018-04-14T07:48:16.826Z,95568.41
2018-04-14T07:50:50.072Z,95577.63
2018-04-14T07:53:23.343Z,95575.02
2018-04-14T07:55:56.620Z,95571.97
2018-04-14T07:58:29.908Z,95577.88
2018-04-14T08:01:03.923Z,95572.06
2018-04-14T08:03:37.196Z,95574.88
2018-04-14T08:06:11.265Z,95581.09
2018-04-14T08:08:45.254Z,95585.41
2018-04-14T08:11:18.514Z,95586.36
2018-04-14T08:13:52.556Z,95585.47
2018-04-14T08:16:25.807Z,95584.33
2018-04-14T08:18:59.080Z,95594.23
2018-04-14T08:21:32.340Z,95594.56
2018-04-14T08:24:05.617Z,95594.55
2018-04-14T08:26:38.871Z,95590.98
2018-04-14T08:29:12.151Z,95596.06
2018-04-14T08:31:45.408Z,95594.00
2018-04-14T08:34:18.680Z,95598.64
2018-04-14T08:36:51.950Z,95594.03
2018-04-14T08:39:25.256Z,95601.53
2018-04-14T08:41:58.499Z,95609.36
2018-04-14T08:44:31.763Z,95606.89
2018-04-14T08:47:05.793Z,95601.53
2018-04-14T08:49:39.060Z,95601.95
2018-04-14T08:52:12.312Z,95607.18
2018-04-14T08:54:45.589Z,95605.95
2018-04-14T08:57:18.848Z,95597.11
2018-04-14T08:59:52.128Z,95598.85
2018-04-14T09:02:25.374Z,95606.88
2018-04-14T09:04:58.648Z,95592.36
2018-04-14T09:07:31.900Z,95592.44
2018-04-14T09:10:05.179Z,95591.81
2018-04-14T09:12:38.429Z,95588.95
2018-04-14T09:15:15.539Z,95592.22
2018-04-14T09:17:48.797Z,95590.97
2018-04-14T09:20:22.064Z,95580.87
2018-04-14T09:22:55.324Z,95580.77
2018-04-14T09:25:28.589Z,95576.64
2018-04-14T09:28:01.831Z,95574.73
2018-04-14T09:30:35.117Z,95571.98
2018-04-14T09:33:08.360Z,95570.92
2018-04-14T09:35:41.636Z,95571.81
2018-04-14T09:38:14.905Z,95573.05
2018-04-14T09:40:48.175Z,95567.14
2018-04-14T09:43:21.434Z,95561.78
2018-04-14T09:45:55.471Z,95563.00
2018-04-14T09:48:28.724Z,95558.13
2018-04-14T09:51:02.004Z,95563.03
2018-04-14T09:53:35.255Z,95560.89
2018-04-14T09:56:08.529Z,95551.55
2018-04-14T09:58:41.788Z,95553.38
2018-04-14T10:01:21.300Z,95553.86
2018-04-14T10:03:54.551Z,95547.63
2018-04-14T10:06:27.835Z,95551.28
2018-04-14T10:09:01.857Z,95553.52
2018-04-14T10:11:35.123Z,95556.19
2018-04-14T10:14:09.148Z,95553.52
2018-04-14T10:16:43.180Z,95552.27
2018-04-14T10:19:16.440Z,95562.33
2018-04-14T10:21:49.719Z,95556.34
2018-04-14T10:24:22.975Z,95547.59
2018-04-14T10:26:56.248Z,95545.15
2018-04-14T10:29:29.503Z,95544.69
2018-04-14T10:32:02.781Z,95542.95
2018-04-14T10:34:36.037Z,95548.80
2018-04-14T10:37:09.311Z,95540.30
2018-04-14T10:39:43.330Z,95539.12
2018-04-14T10:42:16.604Z,95530.06
2018-04-14T10:44:50.616Z,95533.59
2018-04-14T10:47:24.660Z,95527.63
2018-04-14T10:49:57.941Z,95533.18
2018-04-14T10:52:31.958Z,95528.70
2018-04-14T10:55:05.238Z,95526.44
2018-04-14T10:57:39.258Z,95523.61
2018-04-14T11:00:12.532Z,95520.50
2018-04-14T11:02:46.556Z,95522.32
2018-04-14T11:05:20.599Z,95524.29
2018-04-14T11:07:53.860Z,95518.30
2018-04-14T11:10:27.900Z,95511.98
2018-04-14T11:13:01.156Z,95517.81
2018-04-14T11:15:35.179Z,95512.16
2018-04-14T11:18:09.206Z,95510.17
2018-04-14T11:20:42.482Z,95515.55
2018-04-14T11:23:16.495Z,95507.66
2018-04-14T11:25:50.532Z,95511.84
2018-04-14T11:28:23.796Z,95507.41
2018-04-14T11:30:57.876Z,95503.53
2018-04-14T11:33:31.124Z,95507.52
2018-04-14T11:36:04.400Z,95496.24
2018-04-14T11:38:37.698Z,95492.49
2018-04-14T11:41:11.013Z,95493.72
2018-04-14T11:43:44.279Z,95495.63
2018-04-14T11:46:18.329Z,95489.66
2018-04-14T11:48:52.176Z,95481.55
2018-04-14T11:51:25.563Z,95486.91
2018-04-14T11:53:58.849Z,95490.09
2018-04-14T11:56:32.271Z,95489.97
2018-04-14T11:59:05.539Z,95489.16
2018-04-14T12:01:38.852Z,95489.84
2018-04-14T12:04:12.112Z,95493.33
2018-04-14T12:06:45.402Z,95479.69
2018-04-14T12:09:18.659Z,95481.77
2018-04-14T12:11:51.965Z,95487.32
2018-04-14T12:14:25.225Z,95476.50
2018-04-14T12:16:58.500Z,95474.65
2018-04-14T12:19:31.759Z,95469.69
2018-04-14T12:22:05.034Z,95476.30
2018-04-14T12:24:38.284Z,95476.88
2018-04-14T12:27:11.567Z,95473.68
2018-04-14T12:29:44.815Z,95472.67
2018-04-14T12:32:18.104Z,95462.31
2018-04-14T12:34:51.366Z,95468.97
2018-04-14T12:37:24.636Z,95462.87
2018-04-14T12:39:57.890Z,95462.98
2018-04-14T12:42:31.159Z,95462.25
2018-04-14T12:45:04.412Z,95469.05
2018-04-14T12:47:37.679Z,95460.19
2018-04-14T12:50:10.951Z,95456.66
2018-04-14T12:52:44.223Z,95451.94
2018-04-14T12:55:17.487Z,95447.67
2018-04-14T12:57:50.764Z,95445.95
2018-04-14T13:00:24.030Z,95438.86
2018-04-14T13:02:57.307Z,95430.99
2018-04-14T13:05:30.595Z,95427.02
2018-04-14T13:08:03.853Z,95420.75
2018-04-14T13:10:37.133Z,95428.14
2018-04-14T13:13:10.434Z,95422.03
2018-04-14T13:15:43.662Z,95415.59
2018-04-14T13:18:16.924Z,95419.11
2018-04-14T13:20:50.199Z,95412.85
2018-04-14T13:23:23.461Z,95414.39
2018-04-14T13:25:56.740Z,95405.44
2018-04-14T13:28:30.001Z,95402.14
2018-04-14T13:31:03.278Z,95403.34
2018-04-14T13:33:36.539Z,95402.38
2018-04-14T13:36:09.812Z,95398.89
2018-04-14T13:38:43.068Z,95397.64
2018-04-14T13:41:16.363Z,95394.41
2018-04-14T13:43:49.631Z,95386.80
2018-04-14T13:46:23.671Z,95391.23
2018-04-14T13:48:56.924Z,95382.92
2018-04-14T13:51:30.961Z,95375.63
2018-04-14T13:54:04.220Z,95380.54
2018-04-14T13:56:37.507Z,95381.73
2018-04-14T13:59:10.756Z,95383.22
2018-04-14T14:01:44.031Z,95377.20
2018-04-14T14:04:18.063Z,95374.56
2018-04-14T14:06:51.328Z,95372.05
2018-04-14T14:09:25.382Z,95360.77
2018-04-14T14:11:58.635Z,95365.23
2018-04-14T14:14:32.660Z,95366.00
2018-04-14T14:17:05.937Z,95367.86
2018-04-14T14:19:39.987Z,95374.55
2018-04-14T14:22:13.248Z,95374.86
2018-04-14T14:24:47.309Z,95363.56
2018-04-14T14:27:20.564Z,95374.44
2018-04-14T14:29:53.861Z,95374.80
2018-04-14T14:32:27.955Z,95374.45
2018-04-14T14:35:01.997Z,95381.27
2018-04-14T14:37:35.256Z,95375.90
2018-04-14T14:40:08.531Z,95371.89
2018-04-14T14:42:41.822Z,95370.64
2018-04-14T14:45:15.065Z,95366.59
2018-04-14T14:47:48.319Z,95370.64
2018-04-14T14:50:26.924Z,95378.81
2018-04-14T14:53:00.185Z,95373.30
2018-04-14T14:55:33.466Z,95382.65
2018-04-14T14:58:06.719Z,95376.20
2018-04-14T15:00:39.988Z,95382.54
2018-04-14T15:03:13.231Z,95374.75
2018-04-14T15:05:47.265Z,95368.13
2018-04-14T15:08:20.520Z,95364.20
2018-04-14T15:10:54.558Z,95352.69
2018-04-14T15:13:27.828Z,95358.59
2018-04-14T15:16:01.075Z,95362.38
2018-04-14T15:18:34.356Z,95353.27
2018-04-14T15:21:07.608Z,95348.87
2018-04-14T15:23:41.652Z,95342.58
2018-04-14T15:26:14.902Z,95353.39
2018-04-14T15:28:48.183Z,95358.25
2018-04-14T15:31:21.455Z,95355.14
2018-04-14T15:33:54.707Z,95353.97
2018-04-14T15:36:28.724Z,95351.82
2018-04-14T15:39:02.000Z,95342.84
2018-04-14T15:41:36.022Z,95340.12
2018-04-14T15:44:10.055Z,95335.75
2018-04-14T15:46:43.307Z,95334.92
2018-04-14T15:49:16.588Z,95335.69
2018-04-14T15:51:49.984Z,95336.95
2018-04-14T15:54:23.282Z,95333.90
2018-04-14T15:56:56.526Z,95339.29
2018-04-14T15:59:29.803Z,95330.34
2018-04-14T16:02:03.947Z,95318.42
2018-04-14T16:04:37.360Z,95297.69
2018-04-14T16:07:10.589Z,95298.75
2018-04-14T16:09:43.864Z,95295.98
2018-04-14T16:12:17.121Z,95314.35
2018-04-14T16:14:50.395Z,95311.36
2018-04-14T16:17:24.465Z,95311.92
2018-04-14T16:19:57.691Z,95302.36
2018-04-14T16:22:30.962Z,95298.39
2018-04-14T16:25:04.219Z,95293.64
2018-04-14T16:27:37.494Z,95287.42
2018-04-14T16:30:10.743Z,95288.58
2018-04-14T16:32:44.020Z,95291.59
2018-04-14T16:35:17.275Z,95295.65
2018-04-14T16:37:50.557Z,95300.94
2018-04-14T16:40:24.575Z,95295.39
2018-04-14T16:42:57.864Z,95293.37
2018-04-14T16:45:31.884Z,95295.53
2018-04-14T16:48:05.151Z,95297.29
2018-04-14T16:50:39.178Z,95296.99
2018-04-14T16:53:13.213Z,95298.23
2018-04-14T16:55:46.471Z,95298.35
2018-04-14T16:58:19.748Z,95290.29
2018-04-14T17:00:52.996Z,95289.96
2018-04-14T17:03:26.276Z,95282.51
2018-04-14T17:06:00.295Z,95280.41
2018-04-14T17:08:33.572Z,95291.89
2018-04-14T17:11:06.838Z,95290.19
2018-04-14T17:13:40.110Z,95288.87
2018-04-14T17:16:13.377Z,95284.61
2018-04-14T17:18:46.651Z,95285.23
2018-04-14T17:21:20.676Z,95284.29
2018-04-14T17:23:53.952Z,95289.16
2018-04-14T17:26:27.987Z,95276.01
2018-04-14T17:29:01.251Z,95275.62
2018-04-14T17:31:35.278Z,95273.27
2018-04-14T17:34:08.545Z,95272.17
2018-04-14T17:36:42.688Z,95272.11
2018-04-14T17:39:15.948Z,95274.41
2018-04-14T17:41:49.983Z,95279.46
2018-04-14T17:44:23.318Z,95275.73
2018-04-14T17:46:56.528Z,95277.95
2018-04-14T17:49:29.805Z,95273.55
2018-04-14T17:52:03.051Z,95270.88
2018-04-14T17:54:37.107Z,95285.66
2018-04-14T17:57:10.356Z,95279.96
2018-04-14T17:59:44.391Z,95274.70
2018-04-14T18:02:17.713Z,95274.45
2018-04-14T18:04:50.968Z,95274.30
2018-04-14T18:07:24.391Z,95267.29
2018-04-14T18:09:57.659Z,95267.20
2018-04-14T18:12:31.692Z,95270.74
2018-04-14T18:15:04.988Z,95270.80
2018-04-14T18:17:38.261Z,95277.98
2018-04-14T18:20:11.503Z,95285.34
2018-04-14T18:22:44.773Z,95282.55
2018-04-14T18:25:18.036Z,95278.36
2018-04-14T18:27:52.076Z,95284.17
2018-04-14T18:30:25.339Z,95300.72
2018-04-14T18:32:59.371Z,95289.59
2018-04-14T18:35:32.624Z,95292.05
2018-04-14T18:38:05.891Z,95285.43
2018-04-14T18:40:39.148Z,95280.12
2018-04-14T18:43:12.423Z,95286.62
2018-04-14T18:45:45.675Z,95293.91
2018-04-14T18:48:18.939Z,95288.98
2018-04-14T18:50:52.205Z,95292.63
2018-04-14T18:53:26.238Z,95290.94
2018-04-14T18:55:59.748Z,95293.89
2018-04-14T18:58:33.016Z,95295.92
2018-04-14T19:01:06.280Z,95292.63
2018-04-14T19:03:39.596Z,95299.63
2018-04-14T19:06:12.851Z,95301.39
2018-04-14T19:08:46.131Z,95302.42
2018-04-14T19:11:19.387Z,95304.33
2018-04-14T19:13:52.664Z,95304.02
2018-04-14T19:16:26.963Z,95299.80
2018-04-14T19:19:00.300Z,95304.78
2018-04-14T19:21:33.563Z,95295.20
2018-04-14T19:24:07.944Z,95295.77
2018-04-14T19:26:41.200Z,95297.00
2018-04-14T19:29:15.227Z,95299.97
2018-04-14T19:31:48.492Z,95303.16
2018-04-14T19:34:22.532Z,95300.07
2018-04-14T19:36:55.816Z,95297.55
2018-04-14T19:39:29.075Z,95295.52
2018-04-14T19:42:02.356Z,95295.04
2018-04-14T19:44:35.618Z,95300.19
2018-04-14T19:47:08.889Z,95295.63
2018-04-14T19:49:42.909Z,95286.45
2018-04-14T19:52:16.184Z,95287.34
2018-04-14T19:54:50.203Z,95282.70
2018-04-14T19:57:23.471Z,95288.20
2018-04-14T19:59:56.736Z,95285.27
2018-04-14T20:02:30.008Z,95288.66
2018-04-14T20:05:03.268Z,95278.25
2018-04-14T20:07:37.307Z,95282.36
2018-04-14T20:10:10.560Z,95278.33
2018-04-14T20:12:43.837Z,95279.16
2018-04-14T20:15:17.093Z,95280.88
2018-04-14T20:17:50.362Z,95278.99
2018-04-14T20:20:23.633Z,95276.27
2018-04-14T20:22:56.913Z,95274.39
2018-04-14T20:25:30.185Z,95268.22
2018-04-14T20:28:03.449Z,95267.97
2018-04-14T20:30:36.827Z,95267.87
2018-04-14T20:33:10.868Z,95261.30
2018-04-14T20:35:44.129Z,95261.37
2018-04-14T20:38:18.166Z,95255.17
2018-04-14T20:40:51.430Z,95250.27
2018-04-14T20:43:24.704Z,95255.56
2018-04-14T20:45:57.960Z,95248.75
2018-04-14T20:48:31.243Z,95251.94
2018-04-14T20:51:04.492Z,95256.36
2018-04-14T20:53:37.764Z,95252.37
2018-04-14T20:56:11.023Z,95261.55
2018-04-14T20:58:44.303Z,95254.25
2018-04-14T21:01:17.548Z,95254.82
2018-04-14T21:03:50.827Z,95256.66
2018-04-14T21:06:24.080Z,95251.18
2018-04-14T21:08:57.353Z,95243.27
2018-04-14T21:11:30.603Z,95246.61
2018-04-14T21:14:03.876Z,95251.13
2018-04-14T21:16:37.132Z,95250.69
2018-04-14T21:19:10.412Z,95253.78
2018-04-14T21:21:43.671Z,95253.08
2018-04-14T21:24:16.943Z,95254.45
2018-04-14T21:26:50.207Z,95250.37
2018-04-14T21:29:23.504Z,95253.23
2018-04-14T21:31:56.773Z,95241.44
